createdAt,value
2022-08-16T00:00:52.174Z,21
2022-08-16T00:10:52.658Z,20.8
2022-08-16T00:20:53.170Z,20.7
2022-08-16T00:30:53.185Z,20.5
2022-08-16T00:40:53.586Z,20.3
2022-08-16T00:50:55.316Z,20.3
2022-08-16T01:10:55.283Z,20.4
2022-08-16T01:20:56.099Z,20.4
2022-08-16T01:30:56.235Z,20.3
2022-08-16T01:40:56.668Z,20.2
2022-08-16T01:51:05.239Z,20.1
2022-08-16T02:10:59.123Z,20
2022-08-16T02:20:59.629Z,20.1
2022-08-16T02:30:59.822Z,20
2022-08-16T02:40:59.946Z,19.9
2022-08-16T03:01:01.106Z,19.7
2022-08-16T03:11:02.095Z,19.6
2022-08-16T03:21:02.341Z,19.5
2022-08-16T03:31:02.733Z,19.4
2022-08-16T04:01:04.903Z,19.2
2022-08-16T04:11:05.449Z,19.3
2022-08-16T04:21:05.885Z,19.2
2022-08-16T04:31:07.215Z,19.1
2022-08-16T04:41:06.408Z,19.2
2022-08-16T04:51:08.002Z,19.1
2022-08-16T05:11:08.230Z,19.1
2022-08-16T05:21:09.829Z,19.3
2022-08-16T05:31:09.423Z,19.5
2022-08-16T05:41:09.970Z,19.6
2022-08-16T05:51:10.922Z,19.7
2022-08-16T06:01:11.429Z,19.8
2022-08-16T06:11:13.422Z,20.1
2022-08-16T06:21:12.361Z,20.5
2022-08-16T06:31:12.543Z,21
2022-08-16T06:41:13.796Z,21.1
2022-08-16T06:51:14.787Z,21.2
2022-08-16T07:01:14.720Z,21.8
2022-08-16T07:11:14.709Z,21.6
2022-08-16T07:21:15.573Z,22
2022-08-16T07:31:15.955Z,22.1
2022-08-16T07:41:16.884Z,22.5
2022-08-16T07:51:17.456Z,22.4
2022-08-16T08:01:17.993Z,22.8
2022-08-16T08:11:18.286Z,23.5
2022-08-16T08:21:18.652Z,23.9
2022-08-16T08:31:18.807Z,23.7
2022-08-16T08:41:19.718Z,24.1
2022-08-16T09:01:31.508Z,24.7
2022-08-16T09:41:23.139Z,25.5
2022-08-16T10:01:24.064Z,25.9
2022-08-16T10:11:24.841Z,26.3
2022-08-16T10:12:10.900Z,26.4
2022-08-16T10:21:32.006Z,26.7
2022-08-16T10:31:43.955Z,26.7
2022-08-16T10:41:31.697Z,27.2
2022-08-16T10:51:33.807Z,27.5
2022-08-16T11:01:40.268Z,27.9
2022-08-16T11:11:33.147Z,28
2022-08-16T11:21:34.030Z,27.7
2022-08-16T11:31:34.395Z,28.4
2022-08-16T11:41:34.845Z,28.4
2022-08-16T11:51:34.922Z,28.9
2022-08-16T12:01:44.320Z,28.3
2022-08-16T12:11:36.513Z,28.7
2022-08-16T12:21:57.927Z,29
2022-08-16T12:31:37.342Z,29.1
2022-08-16T12:41:38.362Z,29.7
2022-08-16T12:51:59.208Z,29
2022-08-16T13:01:38.694Z,29.3
2022-08-16T13:11:39.155Z,29
2022-08-16T13:21:40.202Z,29.2
2022-08-16T13:31:40.249Z,28.9
2022-08-16T13:41:40.538Z,29.6
2022-08-16T13:51:41.073Z,29.3
2022-08-16T14:01:41.294Z,30
2022-08-16T14:11:41.706Z,29.9
2022-08-16T14:21:45.720Z,30.4
2022-08-16T14:31:42.561Z,29.4
2022-08-16T14:51:42.944Z,29.3
2022-08-16T15:01:58.446Z,29.5
2022-08-16T15:11:45.056Z,29.6
2022-08-16T15:21:47.386Z,29.1
2022-08-16T15:31:46.143Z,28.9
2022-08-16T15:41:47.165Z,29.2
2022-08-16T15:51:48.061Z,29.1
2022-08-16T16:01:48.524Z,29.3
2022-08-16T16:11:48.678Z,28.9
2022-08-16T16:21:48.759Z,28.6
2022-08-16T16:31:50.422Z,28.8
2022-08-16T16:41:50.356Z,28.6
2022-08-16T16:51:51.265Z,28.7
2022-08-16T17:01:57.263Z,28.6
2022-08-16T17:11:54.850Z,28.6
2022-08-16T17:21:53.134Z,28.8
2022-08-16T17:31:53.350Z,29
2022-08-16T17:41:54.277Z,29
2022-08-16T17:51:54.532Z,28.8
2022-08-16T18:01:55.322Z,28
2022-08-16T18:11:56.247Z,27.3
2022-08-16T18:21:56.711Z,26.5
2022-08-16T18:31:57.546Z,26.1
2022-08-16T18:41:58.084Z,25.6
2022-08-16T18:51:58.929Z,25.1
2022-08-16T19:11:59.259Z,24.2
2022-08-16T19:21:59.758Z,23.9
2022-08-16T19:32:00.583Z,23.6
2022-08-16T19:42:01.592Z,23.4
2022-08-16T19:52:02.454Z,23.2
2022-08-16T20:02:03.045Z,23.1
2022-08-16T20:12:03.219Z,22.9
2022-08-16T20:22:04.978Z,22.8
2022-08-16T20:32:04.256Z,22.5
2022-08-16T20:52:05.770Z,22.2
2022-08-16T21:02:06.283Z,22
2022-08-16T21:12:06.667Z,21.9
2022-08-16T21:22:07.066Z,21.8
2022-08-16T21:32:07.876Z,21.9
2022-08-16T21:42:08.635Z,21.8
2022-08-16T22:02:09.544Z,21.4
2022-08-16T22:12:09.909Z,21.2
2022-08-16T22:22:10.822Z,21.2
2022-08-16T22:32:11.740Z,21.1
2022-08-16T22:42:12.409Z,21.3
2022-08-16T22:52:12.476Z,21.4
2022-08-16T23:02:12.878Z,21.3
2022-08-16T23:12:13.061Z,21.5
2022-08-16T23:22:13.400Z,21.2
2022-08-16T23:42:14.220Z,20.8
2022-08-16T23:52:14.705Z,20.6
